sensor_id;sensor_type;location;lat;lon;timestamp;temperature;humidity
19868;DHT22;10096;51.112;6.776;2022-09-01T00:00:07;18.80;1.00
19868;DHT22;10096;51.112;6.776;2022-09-01T00:02:37;18.90;1.00
19868;DHT22;10096;51.112;6.776;2022-09-01T00:05:05;18.90;1.00
19868;DHT22;10096;51.112;6.776;2022-09-01T00:07:32;18.90;1.00
19868;DHT22;10096;51.112;6.776;2022-09-01T00:10:00;18.90;1.00
19868;DHT22;10096;51.112;6.776;2022-09-01T00:12:28;18.90;1.00
19868;DHT22;10096;51.112;6.776;2022-09-01T00:14:56;18.90;1.00
19868;DHT22;10096;51.112;6.776;2022-09-01T00:17:23;18.90;1.00
19868;DHT22;10096;51.112;6.776;2022-09-01T00:19:52;18.90;1.00
19868;DHT22;10096;51.112;6.776;2022-09-01T00:22:19;18.90;1.00
19868;DHT22;10096;51.112;6.776;2022-09-01T00:24:46;18.90;1.00
19868;DHT22;10096;51.112;6.776;2022-09-01T00:27:13;18.90;1.00
19868;DHT22;10096;51.112;6.776;2022-09-01T00:29:40;19.00;1.00
19868;DHT22;10096;51.112;6.776;2022-09-01T00:32:06;18.90;1.00
19868;DHT22;10096;51.112;6.776;2022-09-01T00:34:33;18.70;1.00
19868;DHT22;10096;51.112;6.776;2022-09-01T00:37:02;18.60;1.00
19868;DHT22;10096;51.112;6.776;2022-09-01T00:39:29;18.60;1.00
19868;DHT22;10096;51.112;6.776;2022-09-01T00:41:56;18.50;9.70
19868;DHT22;10096;51.112;6.776;2022-09-01T00:44:24;18.30;54.30
19868;DHT22;10096;51.112;6.776;2022-09-01T00:46:53;18.30;94.70
19868;DHT22;10096;51.112;6.776;2022-09-01T00:49:26;18.30;99.90
19868;DHT22;10096;51.112;6.776;2022-09-01T00:51:57;18.00;99.90
19868;DHT22;10096;51.112;6.776;2022-09-01T00:54:28;18.00;99.90
19868;DHT22;10096;51.112;6.776;2022-09-01T00:56:57;17.90;99.90
19868;DHT22;10096;51.112;6.776;2022-09-01T00:59:25;17.90;99.90
19868;DHT22;10096;51.112;6.776;2022-09-01T01:01:52;17.90;99.90
19868;DHT22;10096;51.112;6.776;2022-09-01T01:04:19;18.00;99.90
19868;DHT22;10096;51.112;6.776;2022-09-01T01:06:49;18.20;99.90
19868;DHT22;10096;51.112;6.776;2022-09-01T01:09:24;18.10;99.90
19868;DHT22;10096;51.112;6.776;2022-09-01T01:11:55;18.20;99.90
19868;DHT22;10096;51.112;6.776;2022-09-01T01:14:25;18.50;99.90
19868;DHT22;10096;51.112;6.776;2022-09-01T01:16:57;18.50;99.90
19868;DHT22;10096;51.112;6.776;2022-09-01T01:19:31;18.50;98.30
19868;DHT22;10096;51.112;6.776;2022-09-01T01:22:27;18.30;99.90
19868;DHT22;10096;51.112;6.776;2022-09-01T01:25:13;18.30;99.90
19868;DHT22;10096;51.112;6.776;2022-09-01T01:27:43;18.30;99.90
19868;DHT22;10096;51.112;6.776;2022-09-01T01:30:11;18.20;99.90
19868;DHT22;10096;51.112;6.776;2022-09-01T01:32:38;18.30;99.90
19868;DHT22;10096;51.112;6.776;2022-09-01T01:35:08;18.20;99.90
19868;DHT22;10096;51.112;6.776;2022-09-01T01:37:36;18.30;99.90
19868;DHT22;10096;51.112;6.776;2022-09-01T01:40:05;18.30;99.90
19868;DHT22;10096;51.112;6.776;2022-09-01T01:42:42;18.30;99.90
19868;DHT22;10096;51.112;6.776;2022-09-01T01:45:10;18.30;99.90
19868;DHT22;10096;51.112;6.776;2022-09-01T01:47:42;18.30;99.90
19868;DHT22;10096;51.112;6.776;2022-09-01T01:50:11;18.20;99.90
19868;DHT22;10096;51.112;6.776;2022-09-01T01:52:39;18.10;99.90
19868;DHT22;10096;51.112;6.776;2022-09-01T01:55:07;18.10;99.90
19868;DHT22;10096;51.112;6.776;2022-09-01T01:57:38;18.10;99.90
19868;DHT22;10096;51.112;6.776;2022-09-01T02:00:16;18.00;99.90
19868;DHT22;10096;51.112;6.776;2022-09-01T02:02:45;17.90;99.90
19868;DHT22;10096;51.112;6.776;2022-09-01T02:05:17;18.00;99.90
19868;DHT22;10096;51.112;6.776;2022-09-01T02:07:52;17.80;99.90
19868;DHT22;10096;51.112;6.776;2022-09-01T02:10:22;17.80;99.90
19868;DHT22;10096;51.112;6.776;2022-09-01T02:12:50;17.80;99.90
19868;DHT22;10096;51.112;6.776;2022-09-01T02:15:19;17.70;99.90
19868;DHT22;10096;51.112;6.776;2022-09-01T02:17:46;17.70;99.90
19868;DHT22;10096;51.112;6.776;2022-09-01T02:20:13;17.70;99.90
19868;DHT22;10096;51.112;6.776;2022-09-01T02:22:41;17.80;99.90
19868;DHT22;10096;51.112;6.776;2022-09-01T02:25:10;18.00;99.90
19868;DHT22;10096;51.112;6.776;2022-09-01T02:27:41;17.80;99.90
19868;DHT22;10096;51.112;6.776;2022-09-01T02:30:09;17.80;99.90
19868;DHT22;10096;51.112;6.776;2022-09-01T02:32:38;17.80;99.90
19868;DHT22;10096;51.112;6.776;2022-09-01T02:35:07;17.80;99.90
19868;DHT22;10096;51.112;6.776;2022-09-01T02:37:36;17.90;99.90
19868;DHT22;10096;51.112;6.776;2022-09-01T02:40:06;17.90;99.90
19868;DHT22;10096;51.112;6.776;2022-09-01T02:42:35;18.00;99.90
19868;DHT22;10096;51.112;6.776;2022-09-01T02:45:06;18.00;99.90
19868;DHT22;10096;51.112;6.776;2022-09-01T02:47:42;17.90;99.90
19868;DHT22;10096;51.112;6.776;2022-09-01T02:50:10;17.90;99.90
19868;DHT22;10096;51.112;6.776;2022-09-01T02:52:39;17.80;99.90
19868;DHT22;10096;51.112;6.776;2022-09-01T02:55:07;17.90;99.90
19868;DHT22;10096;51.112;6.776;2022-09-01T02:57:35;17.70;99.90
19868;DHT22;10096;51.112;6.776;2022-09-01T03:00:04;17.60;99.90
19868;DHT22;10096;51.112;6.776;2022-09-01T03:02:47;17.60;99.90
19868;DHT22;10096;51.112;6.776;2022-09-01T03:05:15;17.50;99.90
19868;DHT22;10096;51.112;6.776;2022-09-01T03:07:43;17.50;99.90
19868;DHT22;10096;51.112;6.776;2022-09-01T03:10:10;17.80;99.90
19868;DHT22;10096;51.112;6.776;2022-09-01T03:12:37;17.70;99.90
19868;DHT22;10096;51.112;6.776;2022-09-01T03:15:04;17.60;99.90
19868;DHT22;10096;51.112;6.776;2022-09-01T03:17:31;17.60;99.90
19868;DHT22;10096;51.112;6.776;2022-09-01T03:20:01;17.60;99.90
19868;DHT22;10096;51.112;6.776;2022-09-01T03:22:28;17.60;99.90
19868;DHT22;10096;51.112;6.776;2022-09-01T03:24:55;17.50;99.90
19868;DHT22;10096;51.112;6.776;2022-09-01T03:27:22;17.50;99.90
19868;DHT22;10096;51.112;6.776;2022-09-01T03:29:49;17.50;99.90
19868;DHT22;10096;51.112;6.776;2022-09-01T03:32:16;17.50;99.90
19868;DHT22;10096;51.112;6.776;2022-09-01T03:34:43;17.70;99.90
19868;DHT22;10096;51.112;6.776;2022-09-01T03:37:11;17.80;99.90
19868;DHT22;10096;51.112;6.776;2022-09-01T03:39:38;17.70;99.90
19868;DHT22;10096;51.112;6.776;2022-09-01T03:42:05;17.70;99.90
19868;DHT22;10096;51.112;6.776;2022-09-01T03:44:35;17.70;99.90
19868;DHT22;10096;51.112;6.776;2022-09-01T03:47:05;17.80;99.90
19868;DHT22;10096;51.112;6.776;2022-09-01T03:49:36;17.50;99.90
19868;DHT22;10096;51.112;6.776;2022-09-01T03:52:04;17.40;99.90
19868;DHT22;10096;51.112;6.776;2022-09-01T03:54:39;17.50;99.90
19868;DHT22;10096;51.112;6.776;2022-09-01T03:57:06;17.50;99.90
19868;DHT22;10096;51.112;6.776;2022-09-01T03:59:34;17.40;99.90
19868;DHT22;10096;51.112;6.776;2022-09-01T04:02:02;17.60;99.90
19868;DHT22;10096;51.112;6.776;2022-09-01T04:04:29;17.40;99.90
19868;DHT22;10096;51.112;6.776;2022-09-01T04:06:57;17.40;99.90
19868;DHT22;10096;51.112;6.776;2022-09-01T04:09:25;17.40;99.90
19868;DHT22;10096;51.112;6.776;2022-09-01T04:11:53;17.40;99.90
19868;DHT22;10096;51.112;6.776;2022-09-01T04:14:20;17.40;99.90
19868;DHT22;10096;51.112;6.776;2022-09-01T04:16:49;17.60;99.90
19868;DHT22;10096;51.112;6.776;2022-09-01T04:19:35;17.40;99.90
19868;DHT22;10096;51.112;6.776;2022-09-01T04:22:04;17.40;99.90
19868;DHT22;10096;51.112;6.776;2022-09-01T04:24:32;17.40;99.90
19868;DHT22;10096;51.112;6.776;2022-09-01T04:27:03;17.60;99.90
19868;DHT22;10096;51.112;6.776;2022-09-01T04:29:32;17.50;99.90
19868;DHT22;10096;51.112;6.776;2022-09-01T04:32:01;17.60;99.90
19868;DHT22;10096;51.112;6.776;2022-09-01T04:34:30;17.60;99.90
19868;DHT22;10096;51.112;6.776;2022-09-01T04:37:01;17.40;99.90
19868;DHT22;10096;51.112;6.776;2022-09-01T04:39:30;17.40;99.90
19868;DHT22;10096;51.112;6.776;2022-09-01T04:41:57;17.40;99.90
19868;DHT22;10096;51.112;6.776;2022-09-01T04:44:25;17.40;99.90
19868;DHT22;10096;51.112;6.776;2022-09-01T04:46:53;17.40;99.90
19868;DHT22;10096;51.112;6.776;2022-09-01T04:49:21;17.40;99.90
19868;DHT22;10096;51.112;6.776;2022-09-01T04:51:51;17.60;99.90
19868;DHT22;10096;51.112;6.776;2022-09-01T04:54:19;17.40;99.90
19868;DHT22;10096;51.112;6.776;2022-09-01T04:56:48;17.70;99.90
19868;DHT22;10096;51.112;6.776;2022-09-01T04:59:18;18.10;99.90
19868;DHT22;10096;51.112;6.776;2022-09-01T05:01:47;18.40;99.90
19868;DHT22;10096;51.112;6.776;2022-09-01T05:04:18;19.10;99.90
19868;DHT22;10096;51.112;6.776;2022-09-01T05:06:50;19.00;99.90
19868;DHT22;10096;51.112;6.776;2022-09-01T05:09:18;18.90;96.10
19868;DHT22;10096;51.112;6.776;2022-09-01T05:11:45;18.80;97.00
19868;DHT22;10096;51.112;6.776;2022-09-01T05:14:14;18.60;99.90
19868;DHT22;10096;51.112;6.776;2022-09-01T05:16:44;18.60;99.90
19868;DHT22;10096;51.112;6.776;2022-09-01T05:19:13;18.80;99.90
19868;DHT22;10096;51.112;6.776;2022-09-01T05:21:43;19.70;92.40
19868;DHT22;10096;51.112;6.776;2022-09-01T05:24:13;20.70;9.60
19868;DHT22;10096;51.112;6.776;2022-09-01T05:26:41;21.50;1.00
19868;DHT22;10096;51.112;6.776;2022-09-01T05:29:09;21.80;1.00
19868;DHT22;10096;51.112;6.776;2022-09-01T05:31:40;22.50;1.00
19868;DHT22;10096;51.112;6.776;2022-09-01T05:34:08;23.10;1.00
19868;DHT22;10096;51.112;6.776;2022-09-01T05:36:42;23.30;1.00
19868;DHT22;10096;51.112;6.776;2022-09-01T05:39:11;23.50;1.00
19868;DHT22;10096;51.112;6.776;2022-09-01T05:41:38;23.00;1.00
19868;DHT22;10096;51.112;6.776;2022-09-01T05:44:06;22.20;1.00
19868;DHT22;10096;51.112;6.776;2022-09-01T05:46:34;21.60;1.00
19868;DHT22;10096;51.112;6.776;2022-09-01T05:49:06;21.30;1.00
19868;DHT22;10096;51.112;6.776;2022-09-01T05:51:33;20.80;1.00
19868;DHT22;10096;51.112;6.776;2022-09-01T05:54:02;20.50;1.00
19868;DHT22;10096;51.112;6.776;2022-09-01T05:56:34;20.50;1.00
19868;DHT22;10096;51.112;6.776;2022-09-01T05:59:03;21.40;1.00
19868;DHT22;10096;51.112;6.776;2022-09-01T06:01:30;22.10;1.00
19868;DHT22;10096;51.112;6.776;2022-09-01T06:04:00;22.80;1.00
19868;DHT22;10096;51.112;6.776;2022-09-01T06:06:34;22.50;1.00
19868;DHT22;10096;51.112;6.776;2022-09-01T06:09:04;22.90;1.00
19868;DHT22;10096;51.112;6.776;2022-09-01T06:11:32;24.10;1.00
19868;DHT22;10096;51.112;6.776;2022-09-01T06:13:59;25.30;1.00
19868;DHT22;10096;51.112;6.776;2022-09-01T06:16:27;25.90;1.00
19868;DHT22;10096;51.112;6.776;2022-09-01T06:18:55;26.60;1.00
19868;DHT22;10096;51.112;6.776;2022-09-01T06:21:24;27.30;1.00
19868;DHT22;10096;51.112;6.776;2022-09-01T06:23:54;27.90;1.00
19868;DHT22;10096;51.112;6.776;2022-09-01T06:26:25;28.40;1.00
19868;DHT22;10096;51.112;6.776;2022-09-01T06:28:54;28.50;1.00
19868;DHT22;10096;51.112;6.776;2022-09-01T06:31:24;28.70;1.00
19868;DHT22;10096;51.112;6.776;2022-09-01T06:33:53;29.10;1.00
19868;DHT22;10096;51.112;6.776;2022-09-01T06:36:23;29.20;1.00
19868;DHT22;10096;51.112;6.776;2022-09-01T06:38:54;29.60;1.00
19868;DHT22;10096;51.112;6.776;2022-09-01T06:41:21;29.60;1.00
19868;DHT22;10096;51.112;6.776;2022-09-01T06:43:50;29.80;1.00
19868;DHT22;10096;51.112;6.776;2022-09-01T06:46:19;30.20;1.00
19868;DHT22;10096;51.112;6.776;2022-09-01T06:48:48;30.20;1.00
19868;DHT22;10096;51.112;6.776;2022-09-01T06:51:17;30.30;99.90
19868;DHT22;10096;51.112;6.776;2022-09-01T06:53:46;30.40;99.90
19868;DHT22;10096;51.112;6.776;2022-09-01T06:56:21;30.50;99.90
19868;DHT22;10096;51.112;6.776;2022-09-01T06:58:52;30.60;99.90
19868;DHT22;10096;51.112;6.776;2022-09-01T07:01:20;30.70;99.90
19868;DHT22;10096;51.112;6.776;2022-09-01T07:03:51;30.80;99.90
19868;DHT22;10096;51.112;6.776;2022-09-01T07:06:19;31.00;99.90
19868;DHT22;10096;51.112;6.776;2022-09-01T07:08:49;31.20;99.90
19868;DHT22;10096;51.112;6.776;2022-09-01T07:11:21;31.40;99.90
19868;DHT22;10096;51.112;6.776;2022-09-01T07:13:55;31.30;99.90
19868;DHT22;10096;51.112;6.776;2022-09-01T07:16:25;31.20;99.90
19868;DHT22;10096;51.112;6.776;2022-09-01T07:18:54;31.20;99.90
19868;DHT22;10096;51.112;6.776;2022-09-01T07:21:22;31.40;99.90
19868;DHT22;10096;51.112;6.776;2022-09-01T07:23:49;31.60;99.90
19868;DHT22;10096;51.112;6.776;2022-09-01T07:26:17;31.70;99.90
19868;DHT22;10096;51.112;6.776;2022-09-01T07:28:44;31.60;99.90
19868;DHT22;10096;51.112;6.776;2022-09-01T07:31:28;31.70;99.90
19868;DHT22;10096;51.112;6.776;2022-09-01T07:34:00;31.50;99.90
19868;DHT22;10096;51.112;6.776;2022-09-01T07:36:28;31.20;99.90
19868;DHT22;10096;51.112;6.776;2022-09-01T07:38:56;31.50;99.90
19868;DHT22;10096;51.112;6.776;2022-09-01T07:41:25;31.50;99.90
19868;DHT22;10096;51.112;6.776;2022-09-01T07:43:54;31.20;99.90
19868;DHT22;10096;51.112;6.776;2022-09-01T07:46:22;31.20;99.90
19868;DHT22;10096;51.112;6.776;2022-09-01T07:48:52;31.20;99.90
19868;DHT22;10096;51.112;6.776;2022-09-01T07:51:21;31.40;99.90
19868;DHT22;10096;51.112;6.776;2022-09-01T07:53:49;31.50;99.90
19868;DHT22;10096;51.112;6.776;2022-09-01T07:56:17;31.20;99.90
19868;DHT22;10096;51.112;6.776;2022-09-01T07:58:46;31.20;99.90
19868;DHT22;10096;51.112;6.776;2022-09-01T08:01:15;31.10;99.90
19868;DHT22;10096;51.112;6.776;2022-09-01T08:03:45;31.20;99.90
19868;DHT22;10096;51.112;6.776;2022-09-01T08:06:15;31.00;99.90
19868;DHT22;10096;51.112;6.776;2022-09-01T08:08:45;30.90;99.90
19868;DHT22;10096;51.112;6.776;2022-09-01T08:11:16;31.40;99.90
19868;DHT22;10096;51.112;6.776;2022-09-01T08:13:45;31.80;99.90
19868;DHT22;10096;51.112;6.776;2022-09-01T08:16:13;31.90;99.90
19868;DHT22;10096;51.112;6.776;2022-09-01T08:18:40;32.00;99.90
19868;DHT22;10096;51.112;6.776;2022-09-01T08:21:07;32.20;99.90
19868;DHT22;10096;51.112;6.776;2022-09-01T08:23:36;32.30;99.90
19868;DHT22;10096;51.112;6.776;2022-09-01T08:26:09;32.70;99.90
19868;DHT22;10096;51.112;6.776;2022-09-01T08:28:36;32.90;99.90
19868;DHT22;10096;51.112;6.776;2022-09-01T08:31:05;32.80;99.90
19868;DHT22;10096;51.112;6.776;2022-09-01T08:33:32;32.50;99.90
19868;DHT22;10096;51.112;6.776;2022-09-01T08:36:00;32.50;99.90
19868;DHT22;10096;51.112;6.776;2022-09-01T08:38:27;32.40;99.90
19868;DHT22;10096;51.112;6.776;2022-09-01T08:40:56;32.00;99.90
19868;DHT22;10096;51.112;6.776;2022-09-01T08:43:33;31.70;99.90
19868;DHT22;10096;51.112;6.776;2022-09-01T08:46:07;31.00;99.90
19868;DHT22;10096;51.112;6.776;2022-09-01T08:48:37;30.10;99.90
19868;DHT22;10096;51.112;6.776;2022-09-01T08:51:13;28.70;99.90
19868;DHT22;10096;51.112;6.776;2022-09-01T08:53:46;27.70;99.90
19868;DHT22;10096;51.112;6.776;2022-09-01T08:56:17;27.10;99.90
19868;DHT22;10096;51.112;6.776;2022-09-01T08:58:44;26.50;99.90
19868;DHT22;10096;51.112;6.776;2022-09-01T09:01:25;26.20;99.90
19868;DHT22;10096;51.112;6.776;2022-09-01T09:04:06;26.00;99.90
19868;DHT22;10096;51.112;6.776;2022-09-01T09:06:40;25.90;99.90
19868;DHT22;10096;51.112;6.776;2022-09-01T09:09:09;25.80;99.90
19868;DHT22;10096;51.112;6.776;2022-09-01T09:12:07;25.90;99.90
19868;DHT22;10096;51.112;6.776;2022-09-01T09:14:53;25.90;99.90
19868;DHT22;10096;51.112;6.776;2022-09-01T09:17:28;26.00;99.90
19868;DHT22;10096;51.112;6.776;2022-09-01T09:19:56;26.30;99.90
19868;DHT22;10096;51.112;6.776;2022-09-01T09:22:23;26.10;99.90
19868;DHT22;10096;51.112;6.776;2022-09-01T09:24:52;26.20;99.90
19868;DHT22;10096;51.112;6.776;2022-09-01T09:27:22;26.40;99.90
19868;DHT22;10096;51.112;6.776;2022-09-01T09:29:51;26.30;99.90
19868;DHT22;10096;51.112;6.776;2022-09-01T09:32:19;26.30;99.90
19868;DHT22;10096;51.112;6.776;2022-09-01T09:34:47;26.20;99.90
19868;DHT22;10096;51.112;6.776;2022-09-01T09:37:30;26.00;99.90
19868;DHT22;10096;51.112;6.776;2022-09-01T09:40:09;26.20;99.90
19868;DHT22;10096;51.112;6.776;2022-09-01T09:42:43;26.00;99.90
19868;DHT22;10096;51.112;6.776;2022-09-01T09:45:27;25.90;99.90
19868;DHT22;10096;51.112;6.776;2022-09-01T09:47:56;26.00;99.90
19868;DHT22;10096;51.112;6.776;2022-09-01T09:50:26;26.20;99.90
19868;DHT22;10096;51.112;6.776;2022-09-01T09:53:12;26.30;99.90
19868;DHT22;10096;51.112;6.776;2022-09-01T09:58:39;26.30;99.90
19868;DHT22;10096;51.112;6.776;2022-09-01T10:01:10;26.40;99.90
19868;DHT22;10096;51.112;6.776;2022-09-01T10:03:43;25.80;99.90
19868;DHT22;10096;51.112;6.776;2022-09-01T10:06:13;25.90;99.90
19868;DHT22;10096;51.112;6.776;2022-09-01T10:08:54;25.90;99.90
19868;DHT22;10096;51.112;6.776;2022-09-01T10:11:28;25.70;99.90
19868;DHT22;10096;51.112;6.776;2022-09-01T10:13:58;25.50;99.90
19868;DHT22;10096;51.112;6.776;2022-09-01T10:16:28;25.70;99.90
19868;DHT22;10096;51.112;6.776;2022-09-01T10:18:57;25.60;99.90
19868;DHT22;10096;51.112;6.776;2022-09-01T10:21:33;25.70;99.90
19868;DHT22;10096;51.112;6.776;2022-09-01T10:24:13;25.80;99.90
19868;DHT22;10096;51.112;6.776;2022-09-01T10:26:41;26.00;99.90
19868;DHT22;10096;51.112;6.776;2022-09-01T10:29:15;26.00;99.90
19868;DHT22;10096;51.112;6.776;2022-09-01T10:31:43;25.80;99.90
19868;DHT22;10096;51.112;6.776;2022-09-01T10:34:12;25.60;99.90
19868;DHT22;10096;51.112;6.776;2022-09-01T10:36:43;25.50;99.90
19868;DHT22;10096;51.112;6.776;2022-09-01T10:39:12;25.80;99.90
19868;DHT22;10096;51.112;6.776;2022-09-01T10:41:53;26.00;99.90
19868;DHT22;10096;51.112;6.776;2022-09-01T10:44:25;25.90;99.90
19868;DHT22;10096;51.112;6.776;2022-09-01T10:46:57;26.10;99.90
19868;DHT22;10096;51.112;6.776;2022-09-01T10:49:59;26.00;99.90
19868;DHT22;10096;51.112;6.776;2022-09-01T10:53:02;26.10;99.90
19868;DHT22;10096;51.112;6.776;2022-09-01T10:55:39;26.00;99.90
19868;DHT22;10096;51.112;6.776;2022-09-01T10:58:32;26.00;99.90
19868;DHT22;10096;51.112;6.776;2022-09-01T11:01:03;26.20;99.90
19868;DHT22;10096;51.112;6.776;2022-09-01T11:04:00;26.10;99.90
19868;DHT22;10096;51.112;6.776;2022-09-01T11:09:33;26.40;99.90
19868;DHT22;10096;51.112;6.776;2022-09-01T11:12:23;26.40;99.90
19868;DHT22;10096;51.112;6.776;2022-09-01T11:14:56;26.50;99.90
19868;DHT22;10096;51.112;6.776;2022-09-01T11:17:26;26.60;99.90
19868;DHT22;10096;51.112;6.776;2022-09-01T11:19:57;26.40;99.90
19868;DHT22;10096;51.112;6.776;2022-09-01T11:22:34;26.40;99.90
19868;DHT22;10096;51.112;6.776;2022-09-01T11:28:10;26.10;99.90
19868;DHT22;10096;51.112;6.776;2022-09-01T11:30:59;26.10;99.90
19868;DHT22;10096;51.112;6.776;2022-09-01T11:33:38;26.10;99.90
19868;DHT22;10096;51.112;6.776;2022-09-01T11:36:14;26.20;99.90
19868;DHT22;10096;51.112;6.776;2022-09-01T11:38:47;26.20;99.90
19868;DHT22;10096;51.112;6.776;2022-09-01T11:41:23;26.40;99.90
19868;DHT22;10096;51.112;6.776;2022-09-01T11:43:53;26.60;99.90
19868;DHT22;10096;51.112;6.776;2022-09-01T11:46:26;26.70;99.90
19868;DHT22;10096;51.112;6.776;2022-09-01T11:48:55;26.50;99.90
19868;DHT22;10096;51.112;6.776;2022-09-01T11:51:22;26.60;99.90
19868;DHT22;10096;51.112;6.776;2022-09-01T11:53:51;26.50;99.90
19868;DHT22;10096;51.112;6.776;2022-09-01T11:56:27;26.40;99.90
19868;DHT22;10096;51.112;6.776;2022-09-01T11:58:54;26.00;99.90
19868;DHT22;10096;51.112;6.776;2022-09-01T12:01:29;26.30;99.90
19868;DHT22;10096;51.112;6.776;2022-09-01T12:04:18;26.30;99.90
19868;DHT22;10096;51.112;6.776;2022-09-01T12:06:52;26.20;99.90
19868;DHT22;10096;51.112;6.776;2022-09-01T12:09:21;26.10;99.90
19868;DHT22;10096;51.112;6.776;2022-09-01T12:11:48;26.20;99.90
19868;DHT22;10096;51.112;6.776;2022-09-01T12:14:21;26.20;99.90
19868;DHT22;10096;51.112;6.776;2022-09-01T12:16:58;26.30;99.90
19868;DHT22;10096;51.112;6.776;2022-09-01T12:19:29;26.30;99.90
19868;DHT22;10096;51.112;6.776;2022-09-01T12:21:59;26.30;99.90
19868;DHT22;10096;51.112;6.776;2022-09-01T12:24:26;26.40;99.90
19868;DHT22;10096;51.112;6.776;2022-09-01T12:26:54;26.80;99.90
19868;DHT22;10096;51.112;6.776;2022-09-01T12:29:23;27.00;99.90
19868;DHT22;10096;51.112;6.776;2022-09-01T12:31:51;27.00;99.90
19868;DHT22;10096;51.112;6.776;2022-09-01T12:34:39;27.20;99.90
19868;DHT22;10096;51.112;6.776;2022-09-01T12:37:09;27.40;99.90
19868;DHT22;10096;51.112;6.776;2022-09-01T12:39:37;27.50;99.90
19868;DHT22;10096;51.112;6.776;2022-09-01T12:42:08;27.80;99.90
19868;DHT22;10096;51.112;6.776;2022-09-01T12:44:44;28.10;99.90
19868;DHT22;10096;51.112;6.776;2022-09-01T12:47:42;28.10;99.90
19868;DHT22;10096;51.112;6.776;2022-09-01T12:50:04;28.20;99.90
19868;DHT22;10096;51.112;6.776;2022-09-01T12:52:33;28.10;99.90
19868;DHT22;10096;51.112;6.776;2022-09-01T12:55:15;28.30;99.90
19868;DHT22;10096;51.112;6.776;2022-09-01T12:57:48;28.30;99.90
19868;DHT22;10096;51.112;6.776;2022-09-01T13:00:19;28.20;99.90
19868;DHT22;10096;51.112;6.776;2022-09-01T13:02:48;27.90;99.90
19868;DHT22;10096;51.112;6.776;2022-09-01T13:05:21;27.80;99.90
19868;DHT22;10096;51.112;6.776;2022-09-01T13:07:52;27.50;99.90
19868;DHT22;10096;51.112;6.776;2022-09-01T13:10:20;27.40;99.90
19868;DHT22;10096;51.112;6.776;2022-09-01T13:12:48;27.10;99.90
19868;DHT22;10096;51.112;6.776;2022-09-01T13:15:15;26.90;99.90
19868;DHT22;10096;51.112;6.776;2022-09-01T13:17:43;26.80;99.90
19868;DHT22;10096;51.112;6.776;2022-09-01T13:20:10;26.60;99.90
19868;DHT22;10096;51.112;6.776;2022-09-01T13:22:40;26.50;99.90
19868;DHT22;10096;51.112;6.776;2022-09-01T13:25:09;26.40;99.90
19868;DHT22;10096;51.112;6.776;2022-09-01T13:27:38;26.50;99.90
19868;DHT22;10096;51.112;6.776;2022-09-01T13:30:06;26.70;99.90
19868;DHT22;10096;51.112;6.776;2022-09-01T13:32:33;26.50;99.90
19868;DHT22;10096;51.112;6.776;2022-09-01T13:35:00;26.70;99.90
19868;DHT22;10096;51.112;6.776;2022-09-01T13:37:30;26.50;99.90
19868;DHT22;10096;51.112;6.776;2022-09-01T13:39:59;26.40;99.90
19868;DHT22;10096;51.112;6.776;2022-09-01T13:42:26;26.40;99.90
19868;DHT22;10096;51.112;6.776;2022-09-01T13:44:53;26.60;99.90
19868;DHT22;10096;51.112;6.776;2022-09-01T13:47:20;26.80;99.90
19868;DHT22;10096;51.112;6.776;2022-09-01T13:49:48;26.90;99.90
19868;DHT22;10096;51.112;6.776;2022-09-01T13:52:16;27.20;99.90
19868;DHT22;10096;51.112;6.776;2022-09-01T13:54:43;27.10;99.90
19868;DHT22;10096;51.112;6.776;2022-09-01T13:57:11;27.20;99.90
19868;DHT22;10096;51.112;6.776;2022-09-01T13:59:39;27.30;99.90
19868;DHT22;10096;51.112;6.776;2022-09-01T14:02:06;27.40;99.90
19868;DHT22;10096;51.112;6.776;2022-09-01T14:04:33;27.50;99.90
19868;DHT22;10096;51.112;6.776;2022-09-01T14:07:00;27.60;99.90
19868;DHT22;10096;51.112;6.776;2022-09-01T14:09:27;27.50;99.90
19868;DHT22;10096;51.112;6.776;2022-09-01T14:11:55;27.60;99.90
19868;DHT22;10096;51.112;6.776;2022-09-01T14:14:23;27.70;99.90
19868;DHT22;10096;51.112;6.776;2022-09-01T14:16:50;27.30;99.90
19868;DHT22;10096;51.112;6.776;2022-09-01T14:19:18;27.50;99.90
19868;DHT22;10096;51.112;6.776;2022-09-01T14:21:45;27.30;99.90
19868;DHT22;10096;51.112;6.776;2022-09-01T14:24:14;27.20;99.90
19868;DHT22;10096;51.112;6.776;2022-09-01T14:26:43;27.20;99.90
19868;DHT22;10096;51.112;6.776;2022-09-01T14:29:10;26.90;99.90
19868;DHT22;10096;51.112;6.776;2022-09-01T14:31:38;27.00;99.90
19868;DHT22;10096;51.112;6.776;2022-09-01T14:34:06;27.00;99.90
19868;DHT22;10096;51.112;6.776;2022-09-01T14:36:34;27.00;99.90
19868;DHT22;10096;51.112;6.776;2022-09-01T14:39:01;27.30;99.90
19868;DHT22;10096;51.112;6.776;2022-09-01T14:41:28;27.20;99.90
19868;DHT22;10096;51.112;6.776;2022-09-01T14:43:56;27.20;99.90
19868;DHT22;10096;51.112;6.776;2022-09-01T14:46:27;27.30;99.90
19868;DHT22;10096;51.112;6.776;2022-09-01T14:48:55;27.10;99.90
19868;DHT22;10096;51.112;6.776;2022-09-01T14:51:24;26.90;99.90
19868;DHT22;10096;51.112;6.776;2022-09-01T14:53:52;26.80;99.90
19868;DHT22;10096;51.112;6.776;2022-09-01T14:56:20;27.00;99.90
19868;DHT22;10096;51.112;6.776;2022-09-01T14:58:48;27.00;99.90
19868;DHT22;10096;51.112;6.776;2022-09-01T15:01:16;27.10;99.90
19868;DHT22;10096;51.112;6.776;2022-09-01T15:03:45;27.20;99.90
19868;DHT22;10096;51.112;6.776;2022-09-01T15:06:17;27.40;99.90
19868;DHT22;10096;51.112;6.776;2022-09-01T15:08:45;27.50;99.90
19868;DHT22;10096;51.112;6.776;2022-09-01T15:11:15;27.50;99.90
19868;DHT22;10096;51.112;6.776;2022-09-01T15:13:43;27.90;99.90
19868;DHT22;10096;51.112;6.776;2022-09-01T15:16:12;27.50;99.90
19868;DHT22;10096;51.112;6.776;2022-09-01T15:18:39;27.50;99.90
19868;DHT22;10096;51.112;6.776;2022-09-01T15:21:06;27.30;99.90
19868;DHT22;10096;51.112;6.776;2022-09-01T15:23:35;27.40;99.90
19868;DHT22;10096;51.112;6.776;2022-09-01T15:26:02;27.20;99.90
19868;DHT22;10096;51.112;6.776;2022-09-01T15:28:29;27.40;99.90
19868;DHT22;10096;51.112;6.776;2022-09-01T15:30:56;27.00;99.90
19868;DHT22;10096;51.112;6.776;2022-09-01T15:33:24;27.00;99.90
19868;DHT22;10096;51.112;6.776;2022-09-01T15:35:51;26.90;99.90
19868;DHT22;10096;51.112;6.776;2022-09-01T15:38:18;26.90;99.90
19868;DHT22;10096;51.112;6.776;2022-09-01T15:40:46;26.90;99.90
19868;DHT22;10096;51.112;6.776;2022-09-01T15:43:14;26.90;99.90
19868;DHT22;10096;51.112;6.776;2022-09-01T15:45:41;26.60;99.90
19868;DHT22;10096;51.112;6.776;2022-09-01T15:48:11;26.50;99.90
19868;DHT22;10096;51.112;6.776;2022-09-01T15:50:38;26.30;99.90
19868;DHT22;10096;51.112;6.776;2022-09-01T15:53:07;26.50;99.90
19868;DHT22;10096;51.112;6.776;2022-09-01T15:55:39;26.30;99.90
19868;DHT22;10096;51.112;6.776;2022-09-01T15:58:08;26.30;99.90
19868;DHT22;10096;51.112;6.776;2022-09-01T16:00:35;26.30;99.90